Maran Canopus — SXUQ — position and weather

sailwx.info

Track history (hours):
 
Tides and Currents Weather Stations Pressure Air Temp Water Temp Dewpoint Dewpoint Depression Visibility Wind Speed Wind Dir Waves Ship Positions

Maran Canopus

Last reported at 2016-Jul-08 07:18 UTC. Time now 2016-Jul-27 01:13 UTC.
Position S 33°47' E 018°04'.
Warning: this ship's position is 18 days out of date.

Length 333 m; draft 11.4 m.

Type: Tanker. MMSI: 240677000.

Date/timePositionNaut miles runAvg speedWind from/ knotsBaromVisibWave heightAir tempDewpointWater temp
2016-Jul-08 07:18S 33°47' E 018°04'1012.8
2016-Jul-08 06:33S 33°53' E 018°13'4 1.9
2016-Jul-08 04:33S 33°56' E 018°11'6 6.4
2016-Jul-08 03:33S 34°02' E 018°07'1110.4
2016-Jul-08 02:32S 34°12' E 018°04'1515.0
2016-Jul-08 01:33S 34°25' E 018°12'57011.6
2016-Jul-06 00:33S 32°53' E 029°28'1414.1
2016-Jul-05 23:34S 32°44' E 029°41'1414.1
2016-Jul-05 22:33S 32°35' E 029°53'1614.2
2016-Jul-05 21:25S 32°24' E 030°07'1214.3
2016-Jul-05 20:34S 32°16' E 030°19'2014.8
2016-Jul-05 19:11S 32°02' E 030°36'1514.8
2016-Jul-05 18:11S 31°53' E 030°49'1015.1
2016-Jul-05 17:31S 31°46' E 030°58'1515.3
2016-Jul-05 16:33S 31°36' E 031°11'1615.0
2016-Jul-05 15:30S 31°26' E 031°25'1614.7
2016-Jul-05 14:25S 31°16' E 031°40'1214.4
2016-Jul-05 13:33S 31°08' E 031°51'1514.6
2016-Jul-05 12:33S 30°60' E 032°05'1514.0
2016-Jul-05 11:30S 30°56' E 032°22'  
Track history (hours):
 
Tides and Currents Weather Stations Pressure Air Temp Water Temp Dewpoint Dewpoint Depression Visibility Wind Speed Wind Dir Waves Ship Positions

Maran Canopus

Last reported at 2016-Jul-08 07:18 UTC. Time now 2016-Jul-27 01:13 UTC.
Position S 33°47' E 018°04'.
Warning: this ship's position is 18 days out of date.

Length 333 m; draft 11.4 m.

Type: Tanker. MMSI: 240677000.

Date/timePositionNaut miles runAvg speedWind from/ knotsBaromVisibWave heightAir tempDewpointWater temp
2016-Jul-08 07:18S 33°47' E 018°04'1012.8
2016-Jul-08 06:33S 33°53' E 018°13'4 1.9
2016-Jul-08 04:33S 33°56' E 018°11'6 6.4
2016-Jul-08 03:33S 34°02' E 018°07'1110.4
2016-Jul-08 02:32S 34°12' E 018°04'1515.0
2016-Jul-08 01:33S 34°25' E 018°12'57011.6
2016-Jul-06 00:33S 32°53' E 029°28'1414.1
2016-Jul-05 23:34S 32°44' E 029°41'1414.1
2016-Jul-05 22:33S 32°35' E 029°53'1614.2
2016-Jul-05 21:25S 32°24' E 030°07'1214.3
2016-Jul-05 20:34S 32°16' E 030°19'2014.8
2016-Jul-05 19:11S 32°02' E 030°36'1514.8
2016-Jul-05 18:11S 31°53' E 030°49'1015.1
2016-Jul-05 17:31S 31°46' E 030°58'1515.3
2016-Jul-05 16:33S 31°36' E 031°11'1615.0
2016-Jul-05 15:30S 31°26' E 031°25'1614.7
2016-Jul-05 14:25S 31°16' E 031°40'1214.4
2016-Jul-05 13:33S 31°08' E 031°51'1514.6
2016-Jul-05 12:33S 30°60' E 032°05'1514.0
2016-Jul-05 11:30S 30°56' E 032°22'  

Dump ship's entire track history